sensor_id;sensor_type;location;lat;lon;timestamp;P1;durP1;ratioP1;P2;durP2;ratioP2
58661;SDS011;44432;49.786;22.760;2023-03-08T00:00:39;28.20;;;14.20;;
58661;SDS011;44432;49.786;22.760;2023-03-08T00:03:15;20.20;;;10.50;;
58661;SDS011;44432;49.786;22.760;2023-03-08T00:05:43;21.20;;;11.60;;
58661;SDS011;44432;49.786;22.760;2023-03-08T00:08:11;16.10;;;9.10;;
58661;SDS011;44432;49.786;22.760;2023-03-08T00:10:40;15.70;;;8.10;;
58661;SDS011;44432;49.786;22.760;2023-03-08T00:13:08;12.80;;;7.00;;
58661;SDS011;44432;49.786;22.760;2023-03-08T00:15:36;12.20;;;7.00;;
58661;SDS011;44432;49.786;22.760;2023-03-08T00:18:05;13.00;;;7.00;;
58661;SDS011;44432;49.786;22.760;2023-03-08T00:20:33;14.30;;;7.70;;
58661;SDS011;44432;49.786;22.760;2023-03-08T00:23:01;14.10;;;7.90;;
58661;SDS011;44432;49.786;22.760;2023-03-08T00:25:29;13.70;;;8.20;;
58661;SDS011;44432;49.786;22.760;2023-03-08T00:27:57;15.40;;;7.90;;
58661;SDS011;44432;49.786;22.760;2023-03-08T00:30:25;16.60;;;9.00;;
58661;SDS011;44432;49.786;22.760;2023-03-08T00:32:54;15.40;;;8.60;;
58661;SDS011;44432;49.786;22.760;2023-03-08T00:35:22;14.40;;;8.00;;
58661;SDS011;44432;49.786;22.760;2023-03-08T00:37:50;14.70;;;8.50;;
58661;SDS011;44432;49.786;22.760;2023-03-08T00:40:18;14.30;;;8.30;;
58661;SDS011;44432;49.786;22.760;2023-03-08T00:42:46;15.20;;;8.00;;
58661;SDS011;44432;49.786;22.760;2023-03-08T00:45:14;14.30;;;8.50;;
58661;SDS011;44432;49.786;22.760;2023-03-08T00:47:42;16.90;;;9.30;;
58661;SDS011;44432;49.786;22.760;2023-03-08T00:50:10;13.80;;;7.60;;
58661;SDS011;44432;49.786;22.760;2023-03-08T00:52:39;17.10;;;9.40;;
58661;SDS011;44432;49.786;22.760;2023-03-08T00:55:07;14.90;;;8.20;;
58661;SDS011;44432;49.786;22.760;2023-03-08T00:57:37;17.50;;;8.80;;
58661;SDS011;44432;49.786;22.760;2023-03-08T01:00:06;14.20;;;8.90;;
58661;SDS011;44432;49.786;22.760;2023-03-08T01:05:07;15.40;;;8.50;;
58661;SDS011;44432;49.786;22.760;2023-03-08T01:07:36;20.90;;;10.30;;
58661;SDS011;44432;49.786;22.760;2023-03-08T01:10:05;17.20;;;9.90;;
58661;SDS011;44432;49.786;22.760;2023-03-08T01:12:34;16.90;;;8.90;;
58661;SDS011;44432;49.786;22.760;2023-03-08T01:15:03;15.00;;;8.80;;
58661;SDS011;44432;49.786;22.760;2023-03-08T01:17:33;16.00;;;8.80;;
58661;SDS011;44432;49.786;22.760;2023-03-08T01:20:01;16.80;;;9.90;;
58661;SDS011;44432;49.786;22.760;2023-03-08T01:22:31;13.80;;;8.20;;
58661;SDS011;44432;49.786;22.760;2023-03-08T01:24:59;14.50;;;9.40;;
58661;SDS011;44432;49.786;22.760;2023-03-08T01:27:27;14.50;;;8.90;;
58661;SDS011;44432;49.786;22.760;2023-03-08T01:29:55;15.50;;;9.10;;
58661;SDS011;44432;49.786;22.760;2023-03-08T01:32:23;17.60;;;9.10;;
58661;SDS011;44432;49.786;22.760;2023-03-08T01:34:51;16.60;;;9.40;;
58661;SDS011;44432;49.786;22.760;2023-03-08T01:37:19;15.90;;;8.90;;
58661;SDS011;44432;49.786;22.760;2023-03-08T01:39:47;15.60;;;9.30;;
58661;SDS011;44432;49.786;22.760;2023-03-08T01:42:15;14.60;;;9.00;;
58661;SDS011;44432;49.786;22.760;2023-03-08T01:44:53;13.60;;;9.20;;
58661;SDS011;44432;49.786;22.760;2023-03-08T01:47:24;12.80;;;8.70;;
58661;SDS011;44432;49.786;22.760;2023-03-08T01:49:54;17.30;;;10.20;;
58661;SDS011;44432;49.786;22.760;2023-03-08T01:52:27;16.40;;;9.30;;
58661;SDS011;44432;49.786;22.760;2023-03-08T01:57:29;16.00;;;9.00;;
58661;SDS011;44432;49.786;22.760;2023-03-08T02:00:04;14.90;;;9.20;;
58661;SDS011;44432;49.786;22.760;2023-03-08T02:02:37;17.10;;;10.00;;
58661;SDS011;44432;49.786;22.760;2023-03-08T02:05:08;13.80;;;9.00;;
58661;SDS011;44432;49.786;22.760;2023-03-08T02:07:37;15.50;;;9.60;;
58661;SDS011;44432;49.786;22.760;2023-03-08T02:10:06;15.00;;;9.50;;
58661;SDS011;44432;49.786;22.760;2023-03-08T02:12:36;16.10;;;9.20;;
58661;SDS011;44432;49.786;22.760;2023-03-08T02:15:07;16.60;;;9.30;;
58661;SDS011;44432;49.786;22.760;2023-03-08T02:17:40;14.90;;;9.10;;
58661;SDS011;44432;49.786;22.760;2023-03-08T02:20:11;18.70;;;10.10;;
58661;SDS011;44432;49.786;22.760;2023-03-08T02:22:46;14.60;;;8.70;;
58661;SDS011;44432;49.786;22.760;2023-03-08T02:25:17;15.90;;;9.10;;
58661;SDS011;44432;49.786;22.760;2023-03-08T02:27:47;18.30;;;10.60;;
58661;SDS011;44432;49.786;22.760;2023-03-08T02:30:23;15.30;;;8.90;;
58661;SDS011;44432;49.786;22.760;2023-03-08T02:32:53;15.30;;;9.10;;
58661;SDS011;44432;49.786;22.760;2023-03-08T02:35:21;14.10;;;8.40;;
58661;SDS011;44432;49.786;22.760;2023-03-08T02:37:49;15.30;;;9.20;;
58661;SDS011;44432;49.786;22.760;2023-03-08T02:40:18;16.00;;;9.70;;
58661;SDS011;44432;49.786;22.760;2023-03-08T02:42:46;14.10;;;8.90;;
58661;SDS011;44432;49.786;22.760;2023-03-08T02:45:14;15.30;;;8.10;;
58661;SDS011;44432;49.786;22.760;2023-03-08T02:47:43;14.10;;;8.20;;
58661;SDS011;44432;49.786;22.760;2023-03-08T02:50:11;16.50;;;9.20;;
58661;SDS011;44432;49.786;22.760;2023-03-08T02:52:39;14.30;;;9.20;;
58661;SDS011;44432;49.786;22.760;2023-03-08T02:55:07;15.40;;;7.90;;
58661;SDS011;44432;49.786;22.760;2023-03-08T02:57:36;12.50;;;8.10;;
58661;SDS011;44432;49.786;22.760;2023-03-08T03:00:05;14.70;;;8.70;;
58661;SDS011;44432;49.786;22.760;2023-03-08T03:02:35;16.00;;;8.30;;
58661;SDS011;44432;49.786;22.760;2023-03-08T03:05:05;16.40;;;9.10;;
58661;SDS011;44432;49.786;22.760;2023-03-08T03:07:36;12.00;;;7.70;;
58661;SDS011;44432;49.786;22.760;2023-03-08T03:10:07;14.50;;;8.40;;
58661;SDS011;44432;49.786;22.760;2023-03-08T03:12:37;14.40;;;8.50;;
58661;SDS011;44432;49.786;22.760;2023-03-08T03:15:06;14.90;;;8.40;;
58661;SDS011;44432;49.786;22.760;2023-03-08T03:17:37;13.20;;;8.30;;
58661;SDS011;44432;49.786;22.760;2023-03-08T03:20:06;13.00;;;8.30;;
58661;SDS011;44432;49.786;22.760;2023-03-08T03:22:36;14.50;;;9.10;;
58661;SDS011;44432;49.786;22.760;2023-03-08T03:25:05;15.70;;;9.00;;
58661;SDS011;44432;49.786;22.760;2023-03-08T03:27:34;17.80;;;8.90;;
58661;SDS011;44432;49.786;22.760;2023-03-08T03:30:03;12.50;;;8.00;;
58661;SDS011;44432;49.786;22.760;2023-03-08T03:32:33;12.70;;;8.60;;
58661;SDS011;44432;49.786;22.760;2023-03-08T03:35:02;13.80;;;8.80;;
58661;SDS011;44432;49.786;22.760;2023-03-08T03:37:33;18.80;;;8.20;;
58661;SDS011;44432;49.786;22.760;2023-03-08T03:40:02;14.10;;;9.20;;
58661;SDS011;44432;49.786;22.760;2023-03-08T03:42:31;14.30;;;8.70;;
58661;SDS011;44432;49.786;22.760;2023-03-08T03:44:59;14.10;;;8.70;;
58661;SDS011;44432;49.786;22.760;2023-03-08T03:47:28;16.00;;;8.70;;
58661;SDS011;44432;49.786;22.760;2023-03-08T03:49:56;15.40;;;8.80;;
58661;SDS011;44432;49.786;22.760;2023-03-08T03:52:24;14.70;;;9.20;;
58661;SDS011;44432;49.786;22.760;2023-03-08T03:54:52;17.70;;;9.00;;
58661;SDS011;44432;49.786;22.760;2023-03-08T03:57:20;16.00;;;9.00;;
58661;SDS011;44432;49.786;22.760;2023-03-08T03:59:48;15.80;;;8.80;;
58661;SDS011;44432;49.786;22.760;2023-03-08T04:02:16;15.30;;;8.40;;
58661;SDS011;44432;49.786;22.760;2023-03-08T04:04:47;17.30;;;9.50;;
58661;SDS011;44432;49.786;22.760;2023-03-08T04:07:16;15.70;;;10.10;;
58661;SDS011;44432;49.786;22.760;2023-03-08T04:09:44;15.40;;;9.40;;
58661;SDS011;44432;49.786;22.760;2023-03-08T04:12:13;18.80;;;12.50;;
58661;SDS011;44432;49.786;22.760;2023-03-08T04:14:41;14.10;;;9.20;;
58661;SDS011;44432;49.786;22.760;2023-03-08T04:17:09;15.90;;;10.30;;
58661;SDS011;44432;49.786;22.760;2023-03-08T04:19:37;20.30;;;12.50;;
58661;SDS011;44432;49.786;22.760;2023-03-08T04:22:06;16.90;;;10.10;;
58661;SDS011;44432;49.786;22.760;2023-03-08T04:24:34;17.80;;;12.20;;
58661;SDS011;44432;49.786;22.760;2023-03-08T04:27:02;17.60;;;10.10;;
58661;SDS011;44432;49.786;22.760;2023-03-08T04:29:30;15.60;;;9.60;;
58661;SDS011;44432;49.786;22.760;2023-03-08T04:31:58;15.60;;;9.90;;
58661;SDS011;44432;49.786;22.760;2023-03-08T04:34:26;19.50;;;10.20;;
58661;SDS011;44432;49.786;22.760;2023-03-08T04:36:54;17.60;;;10.20;;
58661;SDS011;44432;49.786;22.760;2023-03-08T04:39:22;16.60;;;9.70;;
58661;SDS011;44432;49.786;22.760;2023-03-08T04:41:50;14.10;;;9.50;;
58661;SDS011;44432;49.786;22.760;2023-03-08T04:44:18;16.10;;;11.70;;
58661;SDS011;44432;49.786;22.760;2023-03-08T04:46:46;19.40;;;9.90;;
58661;SDS011;44432;49.786;22.760;2023-03-08T04:49:15;16.80;;;10.60;;
58661;SDS011;44432;49.786;22.760;2023-03-08T04:51:43;16.20;;;9.90;;
58661;SDS011;44432;49.786;22.760;2023-03-08T04:54:11;15.30;;;9.50;;
58661;SDS011;44432;49.786;22.760;2023-03-08T04:56:39;16.70;;;10.40;;
58661;SDS011;44432;49.786;22.760;2023-03-08T04:59:07;17.50;;;10.00;;
58661;SDS011;44432;49.786;22.760;2023-03-08T05:01:35;16.80;;;10.30;;
58661;SDS011;44432;49.786;22.760;2023-03-08T05:04:04;19.20;;;9.80;;
58661;SDS011;44432;49.786;22.760;2023-03-08T05:06:32;20.60;;;12.20;;
58661;SDS011;44432;49.786;22.760;2023-03-08T05:09:00;20.60;;;10.20;;
58661;SDS011;44432;49.786;22.760;2023-03-08T05:11:28;19.20;;;12.60;;
58661;SDS011;44432;49.786;22.760;2023-03-08T05:13:57;19.00;;;11.50;;
58661;SDS011;44432;49.786;22.760;2023-03-08T05:16:25;16.50;;;10.80;;
58661;SDS011;44432;49.786;22.760;2023-03-08T05:18:54;18.30;;;11.00;;
58661;SDS011;44432;49.786;22.760;2023-03-08T05:21:22;16.80;;;10.90;;
58661;SDS011;44432;49.786;22.760;2023-03-08T05:23:50;16.20;;;10.20;;
58661;SDS011;44432;49.786;22.760;2023-03-08T05:26:18;16.80;;;11.30;;
58661;SDS011;44432;49.786;22.760;2023-03-08T05:28:46;16.70;;;11.10;;
58661;SDS011;44432;49.786;22.760;2023-03-08T05:31:15;17.60;;;10.40;;
58661;SDS011;44432;49.786;22.760;2023-03-08T05:33:45;17.10;;;11.20;;
58661;SDS011;44432;49.786;22.760;2023-03-08T05:36:16;18.50;;;12.10;;
58661;SDS011;44432;49.786;22.760;2023-03-08T05:38:45;16.10;;;10.70;;
58661;SDS011;44432;49.786;22.760;2023-03-08T05:41:14;33.00;;;18.40;;
58661;SDS011;44432;49.786;22.760;2023-03-08T05:43:42;25.10;;;14.60;;
58661;SDS011;44432;49.786;22.760;2023-03-08T05:46:11;22.50;;;13.50;;
58661;SDS011;44432;49.786;22.760;2023-03-08T05:48:40;15.30;;;10.50;;
58661;SDS011;44432;49.786;22.760;2023-03-08T05:51:09;16.70;;;10.80;;
58661;SDS011;44432;49.786;22.760;2023-03-08T05:53:38;18.70;;;11.20;;
58661;SDS011;44432;49.786;22.760;2023-03-08T05:56:08;17.50;;;10.40;;
58661;SDS011;44432;49.786;22.760;2023-03-08T05:58:37;16.60;;;10.70;;
58661;SDS011;44432;49.786;22.760;2023-03-08T06:01:10;19.10;;;10.40;;
58661;SDS011;44432;49.786;22.760;2023-03-08T06:03:39;18.10;;;11.10;;
58661;SDS011;44432;49.786;22.760;2023-03-08T06:06:07;22.00;;;11.70;;
58661;SDS011;44432;49.786;22.760;2023-03-08T06:08:36;17.60;;;11.00;;
58661;SDS011;44432;49.786;22.760;2023-03-08T06:11:04;20.10;;;10.90;;
58661;SDS011;44432;49.786;22.760;2023-03-08T06:13:33;17.30;;;10.20;;
58661;SDS011;44432;49.786;22.760;2023-03-08T06:16:02;21.80;;;10.30;;
58661;SDS011;44432;49.786;22.760;2023-03-08T06:18:31;16.20;;;9.70;;
58661;SDS011;44432;49.786;22.760;2023-03-08T06:21:00;21.20;;;10.70;;
58661;SDS011;44432;49.786;22.760;2023-03-08T06:23:30;14.10;;;10.00;;
58661;SDS011;44432;49.786;22.760;2023-03-08T06:25:59;16.90;;;10.50;;
58661;SDS011;44432;49.786;22.760;2023-03-08T06:28:27;16.60;;;9.50;;
58661;SDS011;44432;49.786;22.760;2023-03-08T06:30:56;17.90;;;10.80;;
58661;SDS011;44432;49.786;22.760;2023-03-08T06:33:25;20.10;;;10.70;;
58661;SDS011;44432;49.786;22.760;2023-03-08T06:35:56;17.70;;;10.70;;
58661;SDS011;44432;49.786;22.760;2023-03-08T06:38:26;20.50;;;11.80;;
58661;SDS011;44432;49.786;22.760;2023-03-08T06:40:55;16.50;;;10.00;;
58661;SDS011;44432;49.786;22.760;2023-03-08T06:43:23;17.60;;;10.50;;
58661;SDS011;44432;49.786;22.760;2023-03-08T06:45:52;18.90;;;10.60;;
58661;SDS011;44432;49.786;22.760;2023-03-08T06:48:21;17.10;;;9.90;;
58661;SDS011;44432;49.786;22.760;2023-03-08T06:50:49;17.60;;;10.80;;
58661;SDS011;44432;49.786;22.760;2023-03-08T06:53:17;21.90;;;9.80;;
58661;SDS011;44432;49.786;22.760;2023-03-08T06:55:45;21.00;;;11.90;;
58661;SDS011;44432;49.786;22.760;2023-03-08T06:58:14;26.80;;;14.30;;
58661;SDS011;44432;49.786;22.760;2023-03-08T07:00:42;47.70;;;20.60;;
58661;SDS011;44432;49.786;22.760;2023-03-08T07:03:10;30.20;;;15.10;;
58661;SDS011;44432;49.786;22.760;2023-03-08T07:05:39;35.90;;;10.70;;
58661;SDS011;44432;49.786;22.760;2023-03-08T07:08:07;23.60;;;10.90;;
58661;SDS011;44432;49.786;22.760;2023-03-08T07:10:35;18.40;;;9.50;;
58661;SDS011;44432;49.786;22.760;2023-03-08T07:13:03;19.40;;;8.70;;
58661;SDS011;44432;49.786;22.760;2023-03-08T07:15:32;23.80;;;10.10;;
58661;SDS011;44432;49.786;22.760;2023-03-08T07:18:00;17.10;;;9.20;;
58661;SDS011;44432;49.786;22.760;2023-03-08T07:20:28;17.10;;;7.80;;
58661;SDS011;44432;49.786;22.760;2023-03-08T07:22:56;17.20;;;8.70;;
58661;SDS011;44432;49.786;22.760;2023-03-08T07:25:27;12.50;;;7.80;;
58661;SDS011;44432;49.786;22.760;2023-03-08T07:27:55;19.20;;;9.30;;
58661;SDS011;44432;49.786;22.760;2023-03-08T07:30:25;14.50;;;8.20;;
58661;SDS011;44432;49.786;22.760;2023-03-08T07:32:53;15.70;;;9.10;;
58661;SDS011;44432;49.786;22.760;2023-03-08T07:35:21;21.40;;;9.00;;
58661;SDS011;44432;49.786;22.760;2023-03-08T07:37:50;16.40;;;9.30;;
58661;SDS011;44432;49.786;22.760;2023-03-08T07:40:18;20.60;;;8.50;;
58661;SDS011;44432;49.786;22.760;2023-03-08T07:42:46;15.10;;;9.50;;
58661;SDS011;44432;49.786;22.760;2023-03-08T07:45:15;13.00;;;7.90;;
58661;SDS011;44432;49.786;22.760;2023-03-08T07:47:44;20.80;;;8.30;;
58661;SDS011;44432;49.786;22.760;2023-03-08T07:50:12;17.00;;;9.10;;
58661;SDS011;44432;49.786;22.760;2023-03-08T07:52:40;16.70;;;8.20;;
58661;SDS011;44432;49.786;22.760;2023-03-08T07:55:08;15.90;;;8.90;;
58661;SDS011;44432;49.786;22.760;2023-03-08T07:57:37;13.50;;;8.30;;
58661;SDS011;44432;49.786;22.760;2023-03-08T08:00:06;17.00;;;8.20;;
58661;SDS011;44432;49.786;22.760;2023-03-08T08:02:36;14.20;;;7.70;;
58661;SDS011;44432;49.786;22.760;2023-03-08T08:05:04;11.10;;;7.20;;
58661;SDS011;44432;49.786;22.760;2023-03-08T08:07:33;12.50;;;6.90;;
58661;SDS011;44432;49.786;22.760;2023-03-08T08:10:02;13.90;;;7.20;;
58661;SDS011;44432;49.786;22.760;2023-03-08T08:12:32;11.40;;;6.60;;
58661;SDS011;44432;49.786;22.760;2023-03-08T08:15:00;12.90;;;6.80;;
58661;SDS011;44432;49.786;22.760;2023-03-08T08:17:28;12.80;;;6.90;;
58661;SDS011;44432;49.786;22.760;2023-03-08T08:19:57;12.90;;;6.60;;
58661;SDS011;44432;49.786;22.760;2023-03-08T08:22:25;11.90;;;6.60;;
58661;SDS011;44432;49.786;22.760;2023-03-08T08:24:54;16.20;;;7.20;;
58661;SDS011;44432;49.786;22.760;2023-03-08T08:27:22;10.90;;;7.10;;
58661;SDS011;44432;49.786;22.760;2023-03-08T08:29:50;14.10;;;8.40;;
58661;SDS011;44432;49.786;22.760;2023-03-08T08:32:19;13.70;;;7.00;;
58661;SDS011;44432;49.786;22.760;2023-03-08T08:34:47;12.10;;;6.20;;
58661;SDS011;44432;49.786;22.760;2023-03-08T08:37:15;13.70;;;7.20;;
58661;SDS011;44432;49.786;22.760;2023-03-08T08:39:43;24.60;;;7.60;;
58661;SDS011;44432;49.786;22.760;2023-03-08T08:42:11;14.30;;;8.50;;
58661;SDS011;44432;49.786;22.760;2023-03-08T08:44:39;13.30;;;7.30;;
58661;SDS011;44432;49.786;22.760;2023-03-08T08:47:07;9.90;;;6.20;;
58661;SDS011;44432;49.786;22.760;2023-03-08T08:49:35;19.10;;;8.50;;
58661;SDS011;44432;49.786;22.760;2023-03-08T08:52:04;16.90;;;7.80;;
58661;SDS011;44432;49.786;22.760;2023-03-08T08:54:32;11.60;;;7.00;;
58661;SDS011;44432;49.786;22.760;2023-03-08T08:57:00;18.80;;;7.90;;
58661;SDS011;44432;49.786;22.760;2023-03-08T08:59:28;13.40;;;7.20;;
58661;SDS011;44432;49.786;22.760;2023-03-08T09:01:56;15.20;;;7.70;;
58661;SDS011;44432;49.786;22.760;2023-03-08T09:04:24;13.60;;;6.60;;
58661;SDS011;44432;49.786;22.760;2023-03-08T09:06:53;10.60;;;7.00;;
58661;SDS011;44432;49.786;22.760;2023-03-08T09:09:21;11.30;;;8.10;;
58661;SDS011;44432;49.786;22.760;2023-03-08T09:11:49;14.40;;;7.40;;
58661;SDS011;44432;49.786;22.760;2023-03-08T09:14:17;10.30;;;7.20;;
58661;SDS011;44432;49.786;22.760;2023-03-08T09:16:45;14.80;;;7.90;;
58661;SDS011;44432;49.786;22.760;2023-03-08T09:19:13;10.70;;;6.90;;
58661;SDS011;44432;49.786;22.760;2023-03-08T09:21:42;16.00;;;7.30;;
58661;SDS011;44432;49.786;22.760;2023-03-08T09:24:10;15.60;;;9.80;;
58661;SDS011;44432;49.786;22.760;2023-03-08T09:26:38;14.00;;;8.60;;
58661;SDS011;44432;49.786;22.760;2023-03-08T09:29:06;15.60;;;7.70;;
58661;SDS011;44432;49.786;22.760;2023-03-08T09:31:36;12.30;;;8.10;;
58661;SDS011;44432;49.786;22.760;2023-03-08T09:34:05;15.90;;;8.90;;
58661;SDS011;44432;49.786;22.760;2023-03-08T09:36:34;18.20;;;9.10;;
58661;SDS011;44432;49.786;22.760;2023-03-08T09:39:04;14.60;;;8.40;;
58661;SDS011;44432;49.786;22.760;2023-03-08T09:41:40;18.50;;;10.40;;
58661;SDS011;44432;49.786;22.760;2023-03-08T09:44:42;14.70;;;7.80;;
58661;SDS011;44432;49.786;22.760;2023-03-08T09:47:28;13.50;;;8.20;;
58661;SDS011;44432;49.786;22.760;2023-03-08T09:50:08;21.10;;;9.30;;
58661;SDS011;44432;49.786;22.760;2023-03-08T09:52:45;12.80;;;8.70;;
58661;SDS011;44432;49.786;22.760;2023-03-08T09:55:18;12.10;;;7.30;;
58661;SDS011;44432;49.786;22.760;2023-03-08T09:57:55;11.00;;;7.00;;
58661;SDS011;44432;49.786;22.760;2023-03-08T10:00:27;9.50;;;6.60;;
58661;SDS011;44432;49.786;22.760;2023-03-08T10:03:07;10.20;;;6.40;;
58661;SDS011;44432;49.786;22.760;2023-03-08T10:05:50;11.90;;;7.70;;
58661;SDS011;44432;49.786;22.760;2023-03-08T10:08:24;13.60;;;6.60;;
58661;SDS011;44432;49.786;22.760;2023-03-08T10:10:58;21.30;;;6.90;;
58661;SDS011;44432;49.786;22.760;2023-03-08T10:13:30;13.00;;;6.80;;
58661;SDS011;44432;49.786;22.760;2023-03-08T10:16:04;11.20;;;6.80;;
58661;SDS011;44432;49.786;22.760;2023-03-08T10:18:40;13.60;;;7.10;;
58661;SDS011;44432;49.786;22.760;2023-03-08T10:21:14;12.00;;;7.00;;
58661;SDS011;44432;49.786;22.760;2023-03-08T10:23:46;14.00;;;7.00;;
58661;SDS011;44432;49.786;22.760;2023-03-08T10:26:18;11.60;;;6.50;;
58661;SDS011;44432;49.786;22.760;2023-03-08T10:28:46;11.90;;;6.60;;
58661;SDS011;44432;49.786;22.760;2023-03-08T10:31:19;14.20;;;7.70;;
58661;SDS011;44432;49.786;22.760;2023-03-08T10:33:51;14.10;;;7.20;;
58661;SDS011;44432;49.786;22.760;2023-03-08T10:36:26;15.70;;;6.70;;
58661;SDS011;44432;49.786;22.760;2023-03-08T10:38:56;11.50;;;7.00;;
58661;SDS011;44432;49.786;22.760;2023-03-08T10:41:35;10.20;;;6.50;;
58661;SDS011;44432;49.786;22.760;2023-03-08T10:44:09;12.00;;;7.80;;
58661;SDS011;44432;49.786;22.760;2023-03-08T10:46:48;10.30;;;6.20;;
58661;SDS011;44432;49.786;22.760;2023-03-08T10:49:16;16.50;;;7.00;;
58661;SDS011;44432;49.786;22.760;2023-03-08T10:51:54;13.10;;;7.30;;
58661;SDS011;44432;49.786;22.760;2023-03-08T10:54:23;12.20;;;6.40;;
58661;SDS011;44432;49.786;22.760;2023-03-08T10:56:54;12.80;;;7.10;;
58661;SDS011;44432;49.786;22.760;2023-03-08T10:59:26;11.40;;;6.70;;
58661;SDS011;44432;49.786;22.760;2023-03-08T11:01:59;12.20;;;7.30;;
58661;SDS011;44432;49.786;22.760;2023-03-08T11:04:28;10.30;;;6.40;;
58661;SDS011;44432;49.786;22.760;2023-03-08T11:06:57;15.50;;;6.90;;
58661;SDS011;44432;49.786;22.760;2023-03-08T11:09:35;9.80;;;6.40;;
58661;SDS011;44432;49.786;22.760;2023-03-08T11:12:04;12.50;;;7.40;;
58661;SDS011;44432;49.786;22.760;2023-03-08T11:14:46;19.20;;;6.90;;
58661;SDS011;44432;49.786;22.760;2023-03-08T11:17:16;8.50;;;5.60;;
58661;SDS011;44432;49.786;22.760;2023-03-08T11:19:54;17.90;;;6.10;;
58661;SDS011;44432;49.786;22.760;2023-03-08T11:22:39;11.70;;;6.70;;
58661;SDS011;44432;49.786;22.760;2023-03-08T11:25:23;9.60;;;5.40;;
58661;SDS011;44432;49.786;22.760;2023-03-08T11:28:02;12.30;;;7.10;;
58661;SDS011;44432;49.786;22.760;2023-03-08T11:30:44;9.50;;;6.30;;
58661;SDS011;44432;49.786;22.760;2023-03-08T11:33:29;19.70;;;9.60;;
58661;SDS011;44432;49.786;22.760;2023-03-08T11:36:10;11.70;;;8.00;;
58661;SDS011;44432;49.786;22.760;2023-03-08T11:38:45;12.00;;;6.80;;
58661;SDS011;44432;49.786;22.760;2023-03-08T11:41:22;12.40;;;7.70;;
58661;SDS011;44432;49.786;22.760;2023-03-08T11:44:07;13.40;;;6.90;;
58661;SDS011;44432;49.786;22.760;2023-03-08T11:46:46;12.10;;;6.90;;
58661;SDS011;44432;49.786;22.760;2023-03-08T11:49:25;10.60;;;6.80;;
58661;SDS011;44432;49.786;22.760;2023-03-08T11:52:06;10.00;;;6.10;;
58661;SDS011;44432;49.786;22.760;2023-03-08T11:54:49;9.60;;;6.40;;
58661;SDS011;44432;49.786;22.760;2023-03-08T11:57:25;9.80;;;6.10;;
58661;SDS011;44432;49.786;22.760;2023-03-08T12:00:01;18.90;;;8.70;;
58661;SDS011;44432;49.786;22.760;2023-03-08T12:02:38;10.60;;;6.00;;
58661;SDS011;44432;49.786;22.760;2023-03-08T12:07:43;9.30;;;5.60;;
58661;SDS011;44432;49.786;22.760;2023-03-08T12:10:19;12.00;;;5.80;;
58661;SDS011;44432;49.786;22.760;2023-03-08T12:12:50;11.40;;;5.60;;
58661;SDS011;44432;49.786;22.760;2023-03-08T12:15:25;8.40;;;4.90;;
58661;SDS011;44432;49.786;22.760;2023-03-08T12:18:00;15.20;;;5.80;;
58661;SDS011;44432;49.786;22.760;2023-03-08T12:20:34;6.90;;;4.80;;
58661;SDS011;44432;49.786;22.760;2023-03-08T12:23:09;7.00;;;4.70;;
58661;SDS011;44432;49.786;22.760;2023-03-08T12:25:47;10.00;;;5.20;;
58661;SDS011;44432;49.786;22.760;2023-03-08T12:28:19;8.50;;;5.40;;
58661;SDS011;44432;49.786;22.760;2023-03-08T12:30:57;9.40;;;5.40;;
58661;SDS011;44432;49.786;22.760;2023-03-08T12:36:04;12.20;;;5.60;;
58661;SDS011;44432;49.786;22.760;2023-03-08T12:38:35;8.60;;;5.80;;
58661;SDS011;44432;49.786;22.760;2023-03-08T12:41:05;16.00;;;8.60;;
58661;SDS011;44432;49.786;22.760;2023-03-08T12:43:57;12.00;;;5.60;;
58661;SDS011;44432;49.786;22.760;2023-03-08T12:46:28;7.10;;;4.10;;
58661;SDS011;44432;49.786;22.760;2023-03-08T12:49:18;7.10;;;4.30;;
58661;SDS011;44432;49.786;22.760;2023-03-08T12:51:57;7.00;;;4.10;;
58661;SDS011;44432;49.786;22.760;2023-03-08T12:54:28;6.90;;;4.30;;
58661;SDS011;44432;49.786;22.760;2023-03-08T12:56:59;6.60;;;4.10;;
58661;SDS011;44432;49.786;22.760;2023-03-08T12:59:33;8.10;;;4.50;;
58661;SDS011;44432;49.786;22.760;2023-03-08T13:02:21;17.30;;;10.40;;
58661;SDS011;44432;49.786;22.760;2023-03-08T13:05:01;9.60;;;4.50;;
58661;SDS011;44432;49.786;22.760;2023-03-08T13:07:51;7.90;;;5.00;;
58661;SDS011;44432;49.786;22.760;2023-03-08T13:10:33;21.60;;;7.60;;
58661;SDS011;44432;49.786;22.760;2023-03-08T13:13:11;10.60;;;5.80;;
58661;SDS011;44432;49.786;22.760;2023-03-08T13:15:47;13.40;;;6.00;;
58661;SDS011;44432;49.786;22.760;2023-03-08T13:18:16;9.10;;;5.80;;
58661;SDS011;44432;49.786;22.760;2023-03-08T13:23:41;10.80;;;5.10;;
58661;SDS011;44432;49.786;22.760;2023-03-08T13:26:29;9.90;;;4.50;;
58661;SDS011;44432;49.786;22.760;2023-03-08T13:29:12;8.10;;;4.80;;
58661;SDS011;44432;49.786;22.760;2023-03-08T13:31:42;24.50;;;5.50;;
58661;SDS011;44432;49.786;22.760;2023-03-08T13:34:22;10.30;;;6.00;;
58661;SDS011;44432;49.786;22.760;2023-03-08T13:36:53;9.10;;;4.30;;
58661;SDS011;44432;49.786;22.760;2023-03-08T13:39:22;8.50;;;4.90;;
58661;SDS011;44432;49.786;22.760;2023-03-08T13:41:52;8.40;;;4.50;;
58661;SDS011;44432;49.786;22.760;2023-03-08T13:44:32;8.00;;;4.20;;
58661;SDS011;44432;49.786;22.760;2023-03-08T13:47:01;10.10;;;5.30;;
58661;SDS011;44432;49.786;22.760;2023-03-08T13:49:31;10.80;;;5.60;;
58661;SDS011;44432;49.786;22.760;2023-03-08T13:52:03;16.10;;;9.30;;
58661;SDS011;44432;49.786;22.760;2023-03-08T13:54:43;11.00;;;5.70;;
58661;SDS011;44432;49.786;22.760;2023-03-08T13:57:17;10.10;;;5.70;;
58661;SDS011;44432;49.786;22.760;2023-03-08T13:59:48;8.90;;;5.60;;
58661;SDS011;44432;49.786;22.760;2023-03-08T14:02:20;12.50;;;6.00;;
58661;SDS011;44432;49.786;22.760;2023-03-08T14:04:50;14.20;;;6.40;;
58661;SDS011;44432;49.786;22.760;2023-03-08T14:07:23;13.50;;;7.90;;
58661;SDS011;44432;49.786;22.760;2023-03-08T14:09:53;13.30;;;6.60;;
58661;SDS011;44432;49.786;22.760;2023-03-08T14:12:22;12.80;;;8.00;;
58661;SDS011;44432;49.786;22.760;2023-03-08T14:14:54;12.80;;;7.80;;
58661;SDS011;44432;49.786;22.760;2023-03-08T14:17:27;18.10;;;9.10;;
58661;SDS011;44432;49.786;22.760;2023-03-08T14:19:59;16.20;;;8.60;;
58661;SDS011;44432;49.786;22.760;2023-03-08T14:22:30;20.10;;;9.40;;
58661;SDS011;44432;49.786;22.760;2023-03-08T14:25:03;13.70;;;7.20;;
58661;SDS011;44432;49.786;22.760;2023-03-08T14:27:36;13.90;;;6.80;;
58661;SDS011;44432;49.786;22.760;2023-03-08T14:30:11;12.30;;;6.80;;
58661;SDS011;44432;49.786;22.760;2023-03-08T14:32:41;16.30;;;7.10;;
58661;SDS011;44432;49.786;22.760;2023-03-08T14:35:26;17.80;;;8.00;;
58661;SDS011;44432;49.786;22.760;2023-03-08T14:37:56;11.20;;;6.90;;
58661;SDS011;44432;49.786;22.760;2023-03-08T14:40:26;14.20;;;7.50;;
58661;SDS011;44432;49.786;22.760;2023-03-08T14:42:57;17.30;;;7.70;;
58661;SDS011;44432;49.786;22.760;2023-03-08T14:45:29;11.60;;;7.10;;
58661;SDS011;44432;49.786;22.760;2023-03-08T14:48:01;12.30;;;7.30;;
58661;SDS011;44432;49.786;22.760;2023-03-08T14:50:50;12.10;;;7.20;;
58661;SDS011;44432;49.786;22.760;2023-03-08T14:53:27;11.40;;;6.90;;
58661;SDS011;44432;49.786;22.760;2023-03-08T14:55:57;13.20;;;7.10;;